sensor_id;sensor_type;location;lat;lon;timestamp;P1;durP1;ratioP1;P2;durP2;ratioP2
52590;SDS011;38483;42.620;25.394;2023-02-26T00:01:26;33.73;;;17.70;;
52590;SDS011;38483;42.620;25.394;2023-02-26T00:03:56;33.60;;;18.30;;
52590;SDS011;38483;42.620;25.394;2023-02-26T00:06:25;34.07;;;19.67;;
52590;SDS011;38483;42.620;25.394;2023-02-26T00:08:53;44.20;;;20.40;;
52590;SDS011;38483;42.620;25.394;2023-02-26T00:11:21;33.63;;;17.87;;
52590;SDS011;38483;42.620;25.394;2023-02-26T00:13:49;35.30;;;18.10;;
52590;SDS011;38483;42.620;25.394;2023-02-26T00:16:23;33.20;;;18.10;;
52590;SDS011;38483;42.620;25.394;2023-02-26T00:18:54;34.13;;;18.60;;
52590;SDS011;38483;42.620;25.394;2023-02-26T00:21:23;36.20;;;18.57;;
52590;SDS011;38483;42.620;25.394;2023-02-26T00:23:52;35.07;;;18.97;;
52590;SDS011;38483;42.620;25.394;2023-02-26T00:26:19;48.93;;;20.77;;
52590;SDS011;38483;42.620;25.394;2023-02-26T00:28:46;33.03;;;18.90;;
52590;SDS011;38483;42.620;25.394;2023-02-26T00:31:14;37.43;;;20.17;;
52590;SDS011;38483;42.620;25.394;2023-02-26T00:33:42;33.73;;;18.73;;
52590;SDS011;38483;42.620;25.394;2023-02-26T00:38:50;31.37;;;19.33;;
52590;SDS011;38483;42.620;25.394;2023-02-26T00:41:37;34.83;;;18.70;;
52590;SDS011;38483;42.620;25.394;2023-02-26T00:44:04;34.53;;;19.23;;
52590;SDS011;38483;42.620;25.394;2023-02-26T00:49:26;36.63;;;19.00;;
52590;SDS011;38483;42.620;25.394;2023-02-26T00:52:21;30.47;;;17.00;;
52590;SDS011;38483;42.620;25.394;2023-02-26T00:54:54;34.63;;;18.57;;
52590;SDS011;38483;42.620;25.394;2023-02-26T00:57:21;31.93;;;17.17;;
52590;SDS011;38483;42.620;25.394;2023-02-26T00:59:48;31.33;;;18.60;;
52590;SDS011;38483;42.620;25.394;2023-02-26T01:02:15;30.37;;;18.27;;
52590;SDS011;38483;42.620;25.394;2023-02-26T01:04:42;32.10;;;17.80;;
52590;SDS011;38483;42.620;25.394;2023-02-26T01:07:09;32.47;;;18.70;;
52590;SDS011;38483;42.620;25.394;2023-02-26T01:09:36;34.13;;;18.23;;
52590;SDS011;38483;42.620;25.394;2023-02-26T01:12:05;37.13;;;19.30;;
52590;SDS011;38483;42.620;25.394;2023-02-26T01:14:34;33.43;;;18.40;;
52590;SDS011;38483;42.620;25.394;2023-02-26T01:19:49;36.43;;;18.97;;
52590;SDS011;38483;42.620;25.394;2023-02-26T01:22:21;29.93;;;18.40;;
52590;SDS011;38483;42.620;25.394;2023-02-26T01:25:01;29.80;;;17.63;;
52590;SDS011;38483;42.620;25.394;2023-02-26T01:27:30;31.97;;;18.13;;
52590;SDS011;38483;42.620;25.394;2023-02-26T01:29:57;31.00;;;17.57;;
52590;SDS011;38483;42.620;25.394;2023-02-26T01:32:30;33.23;;;17.60;;
52590;SDS011;38483;42.620;25.394;2023-02-26T01:35:10;28.07;;;17.67;;
52590;SDS011;38483;42.620;25.394;2023-02-26T01:37:47;28.23;;;16.87;;
52590;SDS011;38483;42.620;25.394;2023-02-26T01:42:53;31.70;;;16.67;;
52590;SDS011;38483;42.620;25.394;2023-02-26T01:45:31;35.33;;;17.87;;
52590;SDS011;38483;42.620;25.394;2023-02-26T01:48:02;29.13;;;17.40;;
52590;SDS011;38483;42.620;25.394;2023-02-26T01:51:03;34.37;;;16.73;;
52590;SDS011;38483;42.620;25.394;2023-02-26T01:53:30;28.67;;;16.83;;
52590;SDS011;38483;42.620;25.394;2023-02-26T01:55:59;33.67;;;18.03;;
52590;SDS011;38483;42.620;25.394;2023-02-26T01:58:41;29.77;;;17.10;;
52590;SDS011;38483;42.620;25.394;2023-02-26T02:01:09;30.83;;;17.47;;
52590;SDS011;38483;42.620;25.394;2023-02-26T02:03:37;34.97;;;18.50;;
52590;SDS011;38483;42.620;25.394;2023-02-26T02:06:10;35.07;;;18.13;;
52590;SDS011;38483;42.620;25.394;2023-02-26T02:08:43;38.13;;;20.50;;
52590;SDS011;38483;42.620;25.394;2023-02-26T02:11:11;37.97;;;20.30;;
52590;SDS011;38483;42.620;25.394;2023-02-26T02:16:22;31.73;;;18.63;;
52590;SDS011;38483;42.620;25.394;2023-02-26T02:32:59;29.47;;;17.43;;
52590;SDS011;38483;42.620;25.394;2023-02-26T02:35:33;34.70;;;18.87;;
52590;SDS011;38483;42.620;25.394;2023-02-26T02:38:08;28.23;;;16.90;;
52590;SDS011;38483;42.620;25.394;2023-02-26T02:40:43;29.53;;;16.40;;
52590;SDS011;38483;42.620;25.394;2023-02-26T02:43:18;31.23;;;17.53;;
52590;SDS011;38483;42.620;25.394;2023-02-26T02:45:55;35.33;;;18.37;;
52590;SDS011;38483;42.620;25.394;2023-02-26T02:48:43;31.03;;;16.47;;
52590;SDS011;38483;42.620;25.394;2023-02-26T02:51:22;32.50;;;16.57;;
52590;SDS011;38483;42.620;25.394;2023-02-26T03:01:32;38.43;;;17.53;;
52590;SDS011;38483;42.620;25.394;2023-02-26T03:06:36;36.53;;;18.87;;
52590;SDS011;38483;42.620;25.394;2023-02-26T03:09:04;33.17;;;18.47;;
52590;SDS011;38483;42.620;25.394;2023-02-26T03:11:33;36.47;;;18.43;;
52590;SDS011;38483;42.620;25.394;2023-02-26T03:14:00;31.83;;;17.80;;
52590;SDS011;38483;42.620;25.394;2023-02-26T03:22:17;42.03;;;19.63;;
52590;SDS011;38483;42.620;25.394;2023-02-26T03:27:59;30.47;;;17.77;;
52590;SDS011;38483;42.620;25.394;2023-02-26T03:33:02;34.40;;;18.97;;
52590;SDS011;38483;42.620;25.394;2023-02-26T03:35:49;35.43;;;19.60;;
52590;SDS011;38483;42.620;25.394;2023-02-26T03:38:29;35.27;;;20.30;;
52590;SDS011;38483;42.620;25.394;2023-02-26T03:41:05;37.27;;;20.20;;
52590;SDS011;38483;42.620;25.394;2023-02-26T03:43:44;40.63;;;19.90;;
52590;SDS011;38483;42.620;25.394;2023-02-26T03:46:20;39.50;;;22.90;;
52590;SDS011;38483;42.620;25.394;2023-02-26T03:48:52;37.20;;;19.60;;
52590;SDS011;38483;42.620;25.394;2023-02-26T03:51:23;41.70;;;20.83;;
52590;SDS011;38483;42.620;25.394;2023-02-26T03:54:04;38.70;;;22.70;;
52590;SDS011;38483;42.620;25.394;2023-02-26T03:56:45;42.17;;;21.40;;
52590;SDS011;38483;42.620;25.394;2023-02-26T03:59:16;37.27;;;21.10;;
52590;SDS011;38483;42.620;25.394;2023-02-26T04:01:46;41.53;;;21.50;;
52590;SDS011;38483;42.620;25.394;2023-02-26T04:04:21;35.17;;;20.07;;
52590;SDS011;38483;42.620;25.394;2023-02-26T04:06:52;36.97;;;20.20;;
52590;SDS011;38483;42.620;25.394;2023-02-26T04:09:21;35.93;;;20.87;;
52590;SDS011;38483;42.620;25.394;2023-02-26T04:11:49;38.13;;;21.57;;
52590;SDS011;38483;42.620;25.394;2023-02-26T04:14:19;36.97;;;20.63;;
52590;SDS011;38483;42.620;25.394;2023-02-26T04:16:46;37.93;;;21.33;;
52590;SDS011;38483;42.620;25.394;2023-02-26T04:19:14;37.73;;;20.20;;
52590;SDS011;38483;42.620;25.394;2023-02-26T04:21:41;35.07;;;18.93;;
52590;SDS011;38483;42.620;25.394;2023-02-26T04:24:10;30.23;;;15.80;;
52590;SDS011;38483;42.620;25.394;2023-02-26T04:26:37;27.70;;;14.83;;
52590;SDS011;38483;42.620;25.394;2023-02-26T04:29:05;28.77;;;13.73;;
52590;SDS011;38483;42.620;25.394;2023-02-26T04:31:33;20.70;;;12.00;;
52590;SDS011;38483;42.620;25.394;2023-02-26T04:34:00;30.00;;;12.57;;
52590;SDS011;38483;42.620;25.394;2023-02-26T04:36:27;23.80;;;12.93;;
52590;SDS011;38483;42.620;25.394;2023-02-26T04:38:57;22.10;;;11.33;;
52590;SDS011;38483;42.620;25.394;2023-02-26T04:41:24;24.07;;;9.90;;
52590;SDS011;38483;42.620;25.394;2023-02-26T04:43:51;21.90;;;10.10;;
52590;SDS011;38483;42.620;25.394;2023-02-26T04:46:24;27.10;;;10.10;;
52590;SDS011;38483;42.620;25.394;2023-02-26T04:48:52;25.60;;;9.63;;
52590;SDS011;38483;42.620;25.394;2023-02-26T04:51:19;21.63;;;8.77;;
52590;SDS011;38483;42.620;25.394;2023-02-26T04:53:49;16.93;;;8.80;;
52590;SDS011;38483;42.620;25.394;2023-02-26T04:56:16;21.33;;;9.03;;
52590;SDS011;38483;42.620;25.394;2023-02-26T04:58:44;17.07;;;8.50;;
52590;SDS011;38483;42.620;25.394;2023-02-26T05:01:16;21.50;;;9.63;;
52590;SDS011;38483;42.620;25.394;2023-02-26T05:03:43;17.10;;;8.67;;
52590;SDS011;38483;42.620;25.394;2023-02-26T05:06:10;21.70;;;8.63;;
52590;SDS011;38483;42.620;25.394;2023-02-26T05:08:37;17.27;;;9.70;;
52590;SDS011;38483;42.620;25.394;2023-02-26T05:11:08;20.50;;;10.20;;
52590;SDS011;38483;42.620;25.394;2023-02-26T05:13:36;25.73;;;10.17;;
52590;SDS011;38483;42.620;25.394;2023-02-26T05:16:04;22.03;;;10.73;;
52590;SDS011;38483;42.620;25.394;2023-02-26T05:18:32;26.03;;;9.93;;
52590;SDS011;38483;42.620;25.394;2023-02-26T05:21:00;26.00;;;9.73;;
52590;SDS011;38483;42.620;25.394;2023-02-26T05:23:27;24.67;;;10.83;;
52590;SDS011;38483;42.620;25.394;2023-02-26T05:25:55;15.90;;;9.20;;
52590;SDS011;38483;42.620;25.394;2023-02-26T05:28:24;23.13;;;9.50;;
52590;SDS011;38483;42.620;25.394;2023-02-26T05:30:51;26.80;;;9.20;;
52590;SDS011;38483;42.620;25.394;2023-02-26T05:33:19;20.43;;;9.53;;
52590;SDS011;38483;42.620;25.394;2023-02-26T05:35:46;20.43;;;8.30;;
52590;SDS011;38483;42.620;25.394;2023-02-26T05:38:14;30.33;;;9.27;;
52590;SDS011;38483;42.620;25.394;2023-02-26T05:40:41;23.43;;;9.83;;
52590;SDS011;38483;42.620;25.394;2023-02-26T05:43:08;22.97;;;11.07;;
52590;SDS011;38483;42.620;25.394;2023-02-26T05:45:36;26.57;;;12.03;;
52590;SDS011;38483;42.620;25.394;2023-02-26T05:48:03;29.40;;;13.13;;
52590;SDS011;38483;42.620;25.394;2023-02-26T05:50:30;25.57;;;12.50;;
52590;SDS011;38483;42.620;25.394;2023-02-26T05:52:57;25.33;;;11.13;;
52590;SDS011;38483;42.620;25.394;2023-02-26T05:55:24;20.13;;;9.83;;
52590;SDS011;38483;42.620;25.394;2023-02-26T05:57:51;27.90;;;9.67;;
52590;SDS011;38483;42.620;25.394;2023-02-26T06:00:18;23.37;;;9.30;;
52590;SDS011;38483;42.620;25.394;2023-02-26T06:02:45;18.10;;;8.07;;
52590;SDS011;38483;42.620;25.394;2023-02-26T06:05:12;16.97;;;8.47;;
52590;SDS011;38483;42.620;25.394;2023-02-26T06:07:39;19.30;;;8.10;;
52590;SDS011;38483;42.620;25.394;2023-02-26T06:10:07;20.40;;;8.47;;
52590;SDS011;38483;42.620;25.394;2023-02-26T06:12:35;20.13;;;9.10;;
52590;SDS011;38483;42.620;25.394;2023-02-26T06:15:02;23.57;;;9.83;;
52590;SDS011;38483;42.620;25.394;2023-02-26T06:17:31;20.43;;;9.23;;
52590;SDS011;38483;42.620;25.394;2023-02-26T06:19:58;19.33;;;8.50;;
52590;SDS011;38483;42.620;25.394;2023-02-26T06:22:25;29.50;;;10.07;;
52590;SDS011;38483;42.620;25.394;2023-02-26T06:24:52;17.67;;;8.13;;
52590;SDS011;38483;42.620;25.394;2023-02-26T06:27:21;18.27;;;7.67;;
52590;SDS011;38483;42.620;25.394;2023-02-26T06:29:48;21.20;;;8.60;;
52590;SDS011;38483;42.620;25.394;2023-02-26T06:32:15;20.57;;;8.97;;
52590;SDS011;38483;42.620;25.394;2023-02-26T06:34:43;23.93;;;9.70;;
52590;SDS011;38483;42.620;25.394;2023-02-26T06:37:10;22.03;;;9.23;;
52590;SDS011;38483;42.620;25.394;2023-02-26T06:39:36;20.37;;;9.87;;
52590;SDS011;38483;42.620;25.394;2023-02-26T06:42:03;26.53;;;10.63;;
52590;SDS011;38483;42.620;25.394;2023-02-26T06:44:31;24.53;;;10.43;;
52590;SDS011;38483;42.620;25.394;2023-02-26T06:46:58;24.20;;;9.10;;
52590;SDS011;38483;42.620;25.394;2023-02-26T06:49:25;20.00;;;8.83;;
52590;SDS011;38483;42.620;25.394;2023-02-26T06:51:53;17.50;;;9.43;;
52590;SDS011;38483;42.620;25.394;2023-02-26T06:54:20;22.03;;;9.57;;
52590;SDS011;38483;42.620;25.394;2023-02-26T06:56:47;20.30;;;8.57;;
52590;SDS011;38483;42.620;25.394;2023-02-26T06:59:15;29.80;;;10.10;;
52590;SDS011;38483;42.620;25.394;2023-02-26T07:01:42;24.77;;;9.67;;
52590;SDS011;38483;42.620;25.394;2023-02-26T07:04:09;18.97;;;8.97;;
52590;SDS011;38483;42.620;25.394;2023-02-26T07:06:36;21.80;;;9.10;;
52590;SDS011;38483;42.620;25.394;2023-02-26T07:09:03;24.43;;;9.97;;
52590;SDS011;38483;42.620;25.394;2023-02-26T07:11:31;23.37;;;10.93;;
52590;SDS011;38483;42.620;25.394;2023-02-26T07:13:59;22.93;;;10.17;;
52590;SDS011;38483;42.620;25.394;2023-02-26T07:16:27;26.17;;;9.17;;
52590;SDS011;38483;42.620;25.394;2023-02-26T07:18:54;17.67;;;9.77;;
52590;SDS011;38483;42.620;25.394;2023-02-26T07:21:21;18.87;;;8.97;;
52590;SDS011;38483;42.620;25.394;2023-02-26T07:23:48;19.00;;;8.53;;
52590;SDS011;38483;42.620;25.394;2023-02-26T07:26:15;20.37;;;8.07;;
52590;SDS011;38483;42.620;25.394;2023-02-26T07:28:43;19.17;;;7.73;;
52590;SDS011;38483;42.620;25.394;2023-02-26T07:31:10;21.47;;;8.70;;
52590;SDS011;38483;42.620;25.394;2023-02-26T07:33:37;17.53;;;7.33;;
52590;SDS011;38483;42.620;25.394;2023-02-26T07:36:05;18.73;;;7.43;;
52590;SDS011;38483;42.620;25.394;2023-02-26T07:38:32;20.17;;;7.90;;
52590;SDS011;38483;42.620;25.394;2023-02-26T07:40:59;19.70;;;9.37;;
52590;SDS011;38483;42.620;25.394;2023-02-26T07:43:26;20.53;;;7.73;;
52590;SDS011;38483;42.620;25.394;2023-02-26T07:45:53;18.63;;;7.00;;
52590;SDS011;38483;42.620;25.394;2023-02-26T07:48:20;23.83;;;6.83;;
52590;SDS011;38483;42.620;25.394;2023-02-26T07:50:49;18.53;;;8.03;;
52590;SDS011;38483;42.620;25.394;2023-02-26T07:53:18;13.87;;;6.63;;
52590;SDS011;38483;42.620;25.394;2023-02-26T07:55:46;14.60;;;6.50;;
52590;SDS011;38483;42.620;25.394;2023-02-26T07:58:13;21.90;;;7.97;;
52590;SDS011;38483;42.620;25.394;2023-02-26T08:00:40;15.30;;;6.47;;
52590;SDS011;38483;42.620;25.394;2023-02-26T08:03:07;15.33;;;6.97;;
52590;SDS011;38483;42.620;25.394;2023-02-26T08:05:41;26.90;;;7.97;;
52590;SDS011;38483;42.620;25.394;2023-02-26T08:08:09;17.43;;;6.93;;
52590;SDS011;38483;42.620;25.394;2023-02-26T08:10:36;22.33;;;7.10;;
52590;SDS011;38483;42.620;25.394;2023-02-26T08:13:07;18.90;;;7.50;;
52590;SDS011;38483;42.620;25.394;2023-02-26T08:15:34;23.33;;;7.80;;
52590;SDS011;38483;42.620;25.394;2023-02-26T08:18:01;20.97;;;8.13;;
52590;SDS011;38483;42.620;25.394;2023-02-26T08:20:29;17.97;;;6.67;;
52590;SDS011;38483;42.620;25.394;2023-02-26T08:22:56;21.90;;;7.40;;
52590;SDS011;38483;42.620;25.394;2023-02-26T08:25:23;19.37;;;5.80;;
52590;SDS011;38483;42.620;25.394;2023-02-26T08:27:50;21.43;;;6.07;;
52590;SDS011;38483;42.620;25.394;2023-02-26T08:30:17;27.43;;;7.07;;
52590;SDS011;38483;42.620;25.394;2023-02-26T08:32:44;18.30;;;6.20;;
52590;SDS011;38483;42.620;25.394;2023-02-26T08:35:11;20.13;;;6.97;;
52590;SDS011;38483;42.620;25.394;2023-02-26T08:37:38;14.77;;;5.90;;
52590;SDS011;38483;42.620;25.394;2023-02-26T08:40:08;15.90;;;6.30;;
52590;SDS011;38483;42.620;25.394;2023-02-26T08:42:39;16.33;;;5.63;;
52590;SDS011;38483;42.620;25.394;2023-02-26T08:45:06;19.93;;;5.90;;
52590;SDS011;38483;42.620;25.394;2023-02-26T08:47:34;16.80;;;6.10;;
52590;SDS011;38483;42.620;25.394;2023-02-26T08:50:08;17.10;;;5.47;;
52590;SDS011;38483;42.620;25.394;2023-02-26T08:52:36;15.10;;;5.90;;
52590;SDS011;38483;42.620;25.394;2023-02-26T08:55:04;18.80;;;5.33;;
52590;SDS011;38483;42.620;25.394;2023-02-26T08:57:31;20.60;;;6.63;;
52590;SDS011;38483;42.620;25.394;2023-02-26T08:59:58;14.33;;;5.10;;
52590;SDS011;38483;42.620;25.394;2023-02-26T09:02:25;16.20;;;5.63;;
52590;SDS011;38483;42.620;25.394;2023-02-26T09:04:52;24.37;;;5.40;;
52590;SDS011;38483;42.620;25.394;2023-02-26T09:07:19;16.80;;;6.13;;
52590;SDS011;38483;42.620;25.394;2023-02-26T09:10:22;19.03;;;6.47;;
52590;SDS011;38483;42.620;25.394;2023-02-26T09:12:49;20.47;;;5.77;;
52590;SDS011;38483;42.620;25.394;2023-02-26T09:15:16;19.43;;;5.33;;
52590;SDS011;38483;42.620;25.394;2023-02-26T09:17:44;15.73;;;5.90;;
52590;SDS011;38483;42.620;25.394;2023-02-26T09:20:11;21.50;;;5.77;;
52590;SDS011;38483;42.620;25.394;2023-02-26T09:22:39;14.27;;;5.23;;
52590;SDS011;38483;42.620;25.394;2023-02-26T09:25:07;29.33;;;7.77;;
52590;SDS011;38483;42.620;25.394;2023-02-26T09:27:34;29.73;;;6.87;;
52590;SDS011;38483;42.620;25.394;2023-02-26T09:30:02;15.13;;;6.07;;
52590;SDS011;38483;42.620;25.394;2023-02-26T09:32:30;14.73;;;5.10;;
52590;SDS011;38483;42.620;25.394;2023-02-26T09:34:57;30.17;;;6.97;;
52590;SDS011;38483;42.620;25.394;2023-02-26T09:37:24;21.77;;;6.43;;
52590;SDS011;38483;42.620;25.394;2023-02-26T09:39:51;22.67;;;6.10;;
52590;SDS011;38483;42.620;25.394;2023-02-26T09:45:02;18.03;;;5.83;;
52590;SDS011;38483;42.620;25.394;2023-02-26T09:47:32;27.63;;;5.77;;
52590;SDS011;38483;42.620;25.394;2023-02-26T09:52:44;24.50;;;5.37;;
52590;SDS011;38483;42.620;25.394;2023-02-26T09:55:18;22.77;;;5.60;;
52590;SDS011;38483;42.620;25.394;2023-02-26T09:58:02;18.83;;;5.60;;
52590;SDS011;38483;42.620;25.394;2023-02-26T10:17:24;12.23;;;5.10;;
52590;SDS011;38483;42.620;25.394;2023-02-26T10:20:20;15.37;;;5.27;;
52590;SDS011;38483;42.620;25.394;2023-02-26T10:29:09;27.23;;;6.30;;
52590;SDS011;38483;42.620;25.394;2023-02-26T10:34:53;15.30;;;5.23;;
52590;SDS011;38483;42.620;25.394;2023-02-26T10:40:32;16.93;;;5.53;;
52590;SDS011;38483;42.620;25.394;2023-02-26T10:51:33;16.13;;;6.33;;
52590;SDS011;38483;42.620;25.394;2023-02-26T10:56:45;17.90;;;5.13;;
52590;SDS011;38483;42.620;25.394;2023-02-26T11:00:06;30.20;;;5.93;;
52590;SDS011;38483;42.620;25.394;2023-02-26T11:02:43;21.17;;;6.23;;
52590;SDS011;38483;42.620;25.394;2023-02-26T11:05:16;21.47;;;5.40;;
52590;SDS011;38483;42.620;25.394;2023-02-26T11:07:51;17.20;;;5.03;;
52590;SDS011;38483;42.620;25.394;2023-02-26T11:10:22;20.07;;;5.57;;
52590;SDS011;38483;42.620;25.394;2023-02-26T11:12:52;21.17;;;6.97;;
52590;SDS011;38483;42.620;25.394;2023-02-26T11:15:21;21.67;;;4.97;;
52590;SDS011;38483;42.620;25.394;2023-02-26T11:17:55;20.60;;;5.90;;
52590;SDS011;38483;42.620;25.394;2023-02-26T11:23:18;17.23;;;4.67;;
52590;SDS011;38483;42.620;25.394;2023-02-26T11:25:58;17.40;;;4.87;;
52590;SDS011;38483;42.620;25.394;2023-02-26T11:28:41;16.73;;;4.90;;
52590;SDS011;38483;42.620;25.394;2023-02-26T11:31:14;24.53;;;5.60;;
52590;SDS011;38483;42.620;25.394;2023-02-26T11:33:47;19.43;;;5.10;;
52590;SDS011;38483;42.620;25.394;2023-02-26T11:36:16;19.03;;;5.20;;
52590;SDS011;38483;42.620;25.394;2023-02-26T11:38:46;17.70;;;4.93;;
52590;SDS011;38483;42.620;25.394;2023-02-26T11:41:21;20.20;;;6.00;;
52590;SDS011;38483;42.620;25.394;2023-02-26T11:44:11;22.07;;;5.30;;
52590;SDS011;38483;42.620;25.394;2023-02-26T11:46:41;14.27;;;4.90;;
52590;SDS011;38483;42.620;25.394;2023-02-26T11:49:24;13.20;;;4.07;;
52590;SDS011;38483;42.620;25.394;2023-02-26T11:52:04;13.90;;;4.90;;
52590;SDS011;38483;42.620;25.394;2023-02-26T11:54:35;14.50;;;4.97;;
52590;SDS011;38483;42.620;25.394;2023-02-26T11:57:06;19.03;;;6.03;;
52590;SDS011;38483;42.620;25.394;2023-02-26T11:59:40;18.90;;;5.93;;
52590;SDS011;38483;42.620;25.394;2023-02-26T12:02:13;17.13;;;4.73;;
52590;SDS011;38483;42.620;25.394;2023-02-26T12:04:44;23.47;;;5.17;;
52590;SDS011;38483;42.620;25.394;2023-02-26T12:07:15;23.23;;;4.87;;
52590;SDS011;38483;42.620;25.394;2023-02-26T12:09:43;14.90;;;4.20;;
52590;SDS011;38483;42.620;25.394;2023-02-26T12:21:12;16.57;;;4.57;;
52590;SDS011;38483;42.620;25.394;2023-02-26T12:23:52;20.13;;;5.60;;
52590;SDS011;38483;42.620;25.394;2023-02-26T12:37:38;18.47;;;5.03;;
52590;SDS011;38483;42.620;25.394;2023-02-26T12:45:53;17.87;;;4.80;;
52590;SDS011;38483;42.620;25.394;2023-02-26T12:56:33;22.80;;;5.63;;
52590;SDS011;38483;42.620;25.394;2023-02-26T13:00:15;11.37;;;4.70;;
52590;SDS011;38483;42.620;25.394;2023-02-26T13:13:12;15.07;;;5.00;;
52590;SDS011;38483;42.620;25.394;2023-02-26T13:21:42;11.27;;;4.47;;
52590;SDS011;38483;42.620;25.394;2023-02-26T13:24:16;12.23;;;4.50;;
52590;SDS011;38483;42.620;25.394;2023-02-26T13:26:48;14.80;;;4.77;;
52590;SDS011;38483;42.620;25.394;2023-02-26T13:34:42;29.00;;;5.60;;
52590;SDS011;38483;42.620;25.394;2023-02-26T13:37:26;14.77;;;4.47;;
52590;SDS011;38483;42.620;25.394;2023-02-26T13:48:47;15.17;;;5.03;;
52590;SDS011;38483;42.620;25.394;2023-02-26T13:51:36;24.97;;;5.80;;
52590;SDS011;38483;42.620;25.394;2023-02-26T14:06:46;20.87;;;5.40;;
52590;SDS011;38483;42.620;25.394;2023-02-26T14:14:35;11.57;;;5.37;;
52590;SDS011;38483;42.620;25.394;2023-02-26T14:22:48;20.47;;;5.33;;
52590;SDS011;38483;42.620;25.394;2023-02-26T14:30:49;24.83;;;5.50;;
52590;SDS011;38483;42.620;25.394;2023-02-26T14:33:19;19.27;;;5.77;;
52590;SDS011;38483;42.620;25.394;2023-02-26T14:35:54;23.97;;;5.37;;
52590;SDS011;38483;42.620;25.394;2023-02-26T14:38:35;18.23;;;4.97;;
52590;SDS011;38483;42.620;25.394;2023-02-26T14:41:28;15.77;;;4.53;;
52590;SDS011;38483;42.620;25.394;2023-02-26T14:44:10;17.10;;;5.53;;
52590;SDS011;38483;42.620;25.394;2023-02-26T14:46:46;19.77;;;4.67;;
52590;SDS011;38483;42.620;25.394;2023-02-26T14:54:55;22.03;;;5.17;;
52590;SDS011;38483;42.620;25.394;2023-02-26T14:57:58;22.20;;;5.30;;
52590;SDS011;38483;42.620;25.394;2023-02-26T15:09:09;15.70;;;5.00;;
52590;SDS011;38483;42.620;25.394;2023-02-26T15:20:31;15.37;;;5.10;;
52590;SDS011;38483;42.620;25.394;2023-02-26T15:26:00;12.07;;;4.77;;
52590;SDS011;38483;42.620;25.394;2023-02-26T15:28:34;16.07;;;5.37;;
52590;SDS011;38483;42.620;25.394;2023-02-26T15:31:04;13.97;;;5.50;;
52590;SDS011;38483;42.620;25.394;2023-02-26T15:33:34;18.50;;;5.60;;
52590;SDS011;38483;42.620;25.394;2023-02-26T15:36:07;17.03;;;4.93;;
52590;SDS011;38483;42.620;25.394;2023-02-26T15:38:39;18.80;;;5.60;;
52590;SDS011;38483;42.620;25.394;2023-02-26T15:41:07;16.27;;;4.93;;
52590;SDS011;38483;42.620;25.394;2023-02-26T15:43:34;18.17;;;5.63;;
52590;SDS011;38483;42.620;25.394;2023-02-26T15:46:02;21.47;;;5.57;;
52590;SDS011;38483;42.620;25.394;2023-02-26T15:48:31;17.03;;;5.60;;
52590;SDS011;38483;42.620;25.394;2023-02-26T15:51:05;19.13;;;6.37;;
52590;SDS011;38483;42.620;25.394;2023-02-26T15:53:42;15.20;;;5.93;;
52590;SDS011;38483;42.620;25.394;2023-02-26T15:56:31;20.00;;;6.00;;
52590;SDS011;38483;42.620;25.394;2023-02-26T15:59:11;16.83;;;5.80;;
52590;SDS011;38483;42.620;25.394;2023-02-26T16:01:43;14.17;;;5.83;;
52590;SDS011;38483;42.620;25.394;2023-02-26T16:04:13;13.03;;;5.07;;
52590;SDS011;38483;42.620;25.394;2023-02-26T16:06:44;13.40;;;5.67;;
52590;SDS011;38483;42.620;25.394;2023-02-26T16:09:25;13.80;;;5.33;;
52590;SDS011;38483;42.620;25.394;2023-02-26T16:11:55;12.57;;;5.80;;
52590;SDS011;38483;42.620;25.394;2023-02-26T16:14:28;17.87;;;5.00;;
52590;SDS011;38483;42.620;25.394;2023-02-26T16:17:00;14.80;;;5.10;;
52590;SDS011;38483;42.620;25.394;2023-02-26T16:19:34;18.07;;;5.10;;
52590;SDS011;38483;42.620;25.394;2023-02-26T16:22:04;13.57;;;5.23;;
52590;SDS011;38483;42.620;25.394;2023-02-26T16:24:47;17.13;;;6.00;;
52590;SDS011;38483;42.620;25.394;2023-02-26T16:27:19;15.53;;;6.10;;
52590;SDS011;38483;42.620;25.394;2023-02-26T16:29:51;14.27;;;4.80;;
52590;SDS011;38483;42.620;25.394;2023-02-26T16:32:21;13.33;;;5.77;;
52590;SDS011;38483;42.620;25.394;2023-02-26T16:34:52;16.67;;;6.00;;
52590;SDS011;38483;42.620;25.394;2023-02-26T16:42:43;13.10;;;4.80;;
52590;SDS011;38483;42.620;25.394;2023-02-26T16:45:19;11.80;;;4.80;;
52590;SDS011;38483;42.620;25.394;2023-02-26T16:47:49;17.13;;;5.23;;
52590;SDS011;38483;42.620;25.394;2023-02-26T16:50:20;12.67;;;5.13;;
52590;SDS011;38483;42.620;25.394;2023-02-26T16:52:58;13.67;;;4.73;;
52590;SDS011;38483;42.620;25.394;2023-02-26T16:55:29;17.00;;;5.00;;
52590;SDS011;38483;42.620;25.394;2023-02-26T16:57:59;14.53;;;5.73;;
52590;SDS011;38483;42.620;25.394;2023-02-26T17:00:32;20.10;;;6.43;;
52590;SDS011;38483;42.620;25.394;2023-02-26T17:03:10;13.03;;;5.50;;
52590;SDS011;38483;42.620;25.394;2023-02-26T17:05:38;15.57;;;6.03;;
52590;SDS011;38483;42.620;25.394;2023-02-26T17:08:18;12.67;;;4.90;;
52590;SDS011;38483;42.620;25.394;2023-02-26T17:10:48;15.90;;;5.20;;
52590;SDS011;38483;42.620;25.394;2023-02-26T17:13:16;12.90;;;5.20;;
52590;SDS011;38483;42.620;25.394;2023-02-26T17:15:45;16.37;;;5.20;;
52590;SDS011;38483;42.620;25.394;2023-02-26T17:18:13;14.80;;;5.67;;
52590;SDS011;38483;42.620;25.394;2023-02-26T17:20:40;17.77;;;5.10;;
52590;SDS011;38483;42.620;25.394;2023-02-26T17:23:09;13.33;;;5.70;;
52590;SDS011;38483;42.620;25.394;2023-02-26T17:25:40;18.70;;;6.40;;
52590;SDS011;38483;42.620;25.394;2023-02-26T17:28:11;15.53;;;5.10;;
52590;SDS011;38483;42.620;25.394;2023-02-26T17:31:02;13.20;;;5.00;;
52590;SDS011;38483;42.620;25.394;2023-02-26T17:33:29;17.63;;;6.10;;
52590;SDS011;38483;42.620;25.394;2023-02-26T17:36:00;25.10;;;7.17;;
52590;SDS011;38483;42.620;25.394;2023-02-26T17:38:29;14.00;;;6.33;;
52590;SDS011;38483;42.620;25.394;2023-02-26T17:40:59;22.50;;;7.30;;
52590;SDS011;38483;42.620;25.394;2023-02-26T17:43:26;17.07;;;7.43;;
52590;SDS011;38483;42.620;25.394;2023-02-26T17:45:54;13.67;;;7.13;;
52590;SDS011;38483;42.620;25.394;2023-02-26T17:48:21;15.73;;;6.63;;
52590;SDS011;38483;42.620;25.394;2023-02-26T17:50:49;16.63;;;6.13;;
52590;SDS011;38483;42.620;25.394;2023-02-26T17:53:20;15.13;;;5.03;;
52590;SDS011;38483;42.620;25.394;2023-02-26T17:55:49;15.53;;;5.67;;
52590;SDS011;38483;42.620;25.394;2023-02-26T18:00:47;12.47;;;4.90;;
52590;SDS011;38483;42.620;25.394;2023-02-26T18:03:19;20.20;;;5.73;;
52590;SDS011;38483;42.620;25.394;2023-02-26T18:05:46;19.53;;;5.77;;
52590;SDS011;38483;42.620;25.394;2023-02-26T18:08:33;19.00;;;5.53;;
52590;SDS011;38483;42.620;25.394;2023-02-26T18:11:00;15.93;;;6.00;;
52590;SDS011;38483;42.620;25.394;2023-02-26T18:13:29;17.93;;;6.33;;
52590;SDS011;38483;42.620;25.394;2023-02-26T18:15:56;16.90;;;5.90;;
52590;SDS011;38483;42.620;25.394;2023-02-26T18:18:24;17.10;;;5.93;;
52590;SDS011;38483;42.620;25.394;2023-02-26T18:20:52;12.40;;;5.30;;
52590;SDS011;38483;42.620;25.394;2023-02-26T18:23:19;20.73;;;5.80;;
52590;SDS011;38483;42.620;25.394;2023-02-26T18:25:48;16.40;;;5.23;;
52590;SDS011;38483;42.620;25.394;2023-02-26T18:28:26;12.53;;;5.33;;